Time;durP1;ratioP1;P1;durP2;ratioP2;P2;SDS_P1;SDS_P2;PMS_P1;PMS_P2;Temp;Humidity;BMP_temperature;BMP_pressure;BME280_temperature;BME280_humidity;BME280_pressure;Samples;Min_cycle;Max_cycle;Signal;HPM_P1;HPM_P2
2024/03/22 00:01:47;;;;;;;0.30;0.30;;;;;;;8.58;100.00;99996.97;5050430;28;20044;-58
2024/03/22 00:04:13;;;;;;;0.30;0.30;;;;;;;8.61;100.00;99993.88;5046834;28;20056;-58
2024/03/22 00:06:42;;;;;;;0.30;0.30;;;;;;;8.70;100.00;99981.94;5053763;28;20035;-58
2024/03/22 00:09:08;;;;;;;0.30;0.30;;;;;;;8.80;100.00;99978.81;5054704;28;20044;-58
2024/03/22 00:11:35;;;;;;;0.20;0.20;;;;;;;8.72;100.00;99979.88;5053251;28;20045;-58
2024/03/22 00:14:01;;;;;;;0.30;0.30;;;;;;;8.76;100.00;99975.75;5059072;28;20041;-57
2024/03/22 00:16:28;;;;;;;0.30;0.30;;;;;;;8.79;100.00;99978.00;5046486;28;20053;-58
2024/03/22 00:18:55;;;;;;;0.30;0.30;;;;;;;8.63;100.00;99968.59;5051421;28;20051;-58
2024/03/22 00:21:22;;;;;;;0.20;0.20;;;;;;;8.61;100.00;99969.84;5045038;28;20049;-58
2024/03/22 00:23:50;;;;;;;0.30;0.30;;;;;;;8.71;100.00;99970.22;5055161;28;20868;-58
2024/03/22 00:26:17;;;;;;;0.20;0.20;;;;;;;8.70;100.00;99971.25;5052338;28;20125;-56
2024/03/22 00:28:43;;;;;;;0.30;0.30;;;;;;;8.77;100.00;99972.03;5046128;28;20458;-58
2024/03/22 00:31:10;;;;;;;0.30;0.30;;;;;;;8.78;100.00;99979.00;5053204;28;20546;-58
2024/03/22 00:33:37;;;;;;;0.40;0.40;;;;;;;8.90;100.00;99973.00;5050636;28;20037;-58
2024/03/22 00:36:04;;;;;;;0.20;0.20;;;;;;;8.88;100.00;99961.72;5058265;28;20045;-58
2024/03/22 00:38:30;;;;;;;0.30;0.30;;;;;;;8.92;100.00;99965.59;5047321;28;20144;-58
2024/03/22 00:40:59;;;;;;;0.30;0.30;;;;;;;8.94;100.00;99958.19;5050753;28;20053;-58
2024/03/22 00:43:25;;;;;;;0.30;0.30;;;;;;;9.04;100.00;99958.56;5054635;28;20043;-58
2024/03/22 00:45:52;;;;;;;0.30;0.30;;;;;;;8.98;100.00;99956.72;5046677;28;20083;-58
2024/03/22 00:48:18;;;;;;;0.30;0.30;;;;;;;9.02;100.00;99952.59;5080018;28;20055;-58
2024/03/22 00:50:45;;;;;;;0.40;0.40;;;;;;;9.05;100.00;99955.66;5046064;28;20052;-58
2024/03/22 00:53:12;;;;;;;0.20;0.20;;;;;;;9.01;100.00;99951.78;5049298;28;20045;-58
2024/03/22 00:55:39;;;;;;;0.20;0.20;;;;;;;9.02;100.00;99942.72;5052605;28;20049;-58
2024/03/22 00:58:06;;;;;;;0.22;0.22;;;;;;;9.05;100.00;99949.47;5057091;28;20073;-58
2024/03/22 01:00:34;;;;;;;0.25;0.25;;;;;;;9.00;100.00;99943.97;5060662;28;20048;-58
2024/03/22 01:03:00;;;;;;;0.20;0.20;;;;;;;9.02;100.00;99939.22;5051535;28;20507;-58
2024/03/22 01:05:27;;;;;;;0.20;0.20;;;;;;;9.03;100.00;99943.53;5056467;28;20044;-58
2024/03/22 01:07:53;;;;;;;0.40;0.40;;;;;;;9.07;100.00;99940.22;5054234;28;20049;-57
2024/03/22 01:10:20;;;;;;;0.20;0.20;;;;;;;8.97;100.00;99936.38;5047585;28;20051;-58
2024/03/22 01:12:46;;;;;;;0.20;0.20;;;;;;;8.90;100.00;99940.94;5060522;28;20045;-58
2024/03/22 01:15:15;;;;;;;0.30;0.30;;;;;;;8.80;100.00;99928.03;5052253;28;20044;-56
2024/03/22 01:17:41;;;;;;;0.30;0.30;;;;;;;8.78;100.00;99919.41;5059094;28;20136;-58
2024/03/22 01:20:09;;;;;;;0.20;0.20;;;;;;;8.81;100.00;99922.47;5054771;28;20049;-58
2024/03/22 01:22:35;;;;;;;0.30;0.30;;;;;;;8.89;100.00;99926.75;5057480;28;20040;-57
2024/03/22 01:25:02;;;;;;;0.35;0.35;;;;;;;8.91;100.00;99923.84;5056535;28;20049;-58
2024/03/22 01:27:28;;;;;;;0.30;0.30;;;;;;;8.97;100.00;99923.81;5056106;28;20502;-57
2024/03/22 01:29:55;;;;;;;0.30;0.30;;;;;;;8.85;100.00;99925.53;5052382;28;20069;-57
2024/03/22 01:32:22;;;;;;;0.30;0.30;;;;;;;8.76;100.00;99916.97;5060122;28;20068;-57
2024/03/22 01:34:49;;;;;;;0.30;0.30;;;;;;;8.71;100.00;99914.09;5054111;28;20052;-57
2024/03/22 01:37:15;;;;;;;0.20;0.20;;;;;;;8.72;100.00;99914.91;5052265;28;20135;-57
2024/03/22 01:39:43;;;;;;;0.30;0.30;;;;;;;8.68;100.00;99908.34;5056647;28;20044;-57
2024/03/22 01:42:09;;;;;;;0.30;0.30;;;;;;;8.73;100.00;99914.69;5053165;28;20068;-58
2024/03/22 01:44:36;;;;;;;0.20;0.20;;;;;;;8.73;100.00;99916.53;5061217;28;20044;-58
2024/03/22 01:47:02;;;;;;;0.30;0.30;;;;;;;8.81;100.00;99914.47;5048702;28;20045;-58
2024/03/22 01:49:30;;;;;;;0.30;0.30;;;;;;;8.74;100.00;99913.66;5055156;28;20059;-57
2024/03/22 01:51:56;;;;;;;0.20;0.20;;;;;;;8.64;100.00;99907.97;5051616;28;20112;-58
2024/03/22 01:54:23;;;;;;;0.30;0.30;;;;;;;8.66;100.00;99913.09;5050171;28;20458;-57
2024/03/22 01:56:49;;;;;;;0.20;0.20;;;;;;;8.63;100.00;99911.66;5048730;28;20483;-57
2024/03/22 01:59:16;;;;;;;0.30;0.30;;;;;;;8.55;100.00;99909.25;5059680;28;20059;-58
2024/03/22 02:01:43;;;;;;;0.28;0.28;;;;;;;8.47;100.00;99906.81;5051150;28;20091;-58
2024/03/22 02:04:11;;;;;;;0.28;0.28;;;;;;;8.52;100.00;99898.97;5055843;28;20045;-58
2024/03/22 02:06:39;;;;;;;0.30;0.30;;;;;;;8.53;100.00;99890.72;5058935;28;20537;-56
2024/03/22 02:09:09;;;;;;;0.28;0.28;;;;;;;8.57;100.00;99886.63;5050719;28;20049;-58
2024/03/22 02:11:35;;;;;;;0.20;0.20;;;;;;;8.52;100.00;99889.09;5045288;28;20048;-58
2024/03/22 02:14:02;;;;;;;0.30;0.30;;;;;;;8.46;100.00;99883.78;5052628;28;20071;-58
2024/03/22 02:16:28;;;;;;;0.30;0.30;;;;;;;8.46;100.00;99881.13;5058268;28;20604;-57
2024/03/22 02:18:55;;;;;;;0.20;0.20;;;;;;;8.36;100.00;99877.03;5062474;28;20045;-57
2024/03/22 02:21:21;;;;;;;0.25;0.25;;;;;;;8.31;100.00;99878.69;5049287;28;20507;-58
2024/03/22 02:23:49;;;;;;;0.30;0.30;;;;;;;8.32;100.00;99870.47;5054144;28;20045;-57
2024/03/22 02:26:15;;;;;;;0.32;0.32;;;;;;;8.30;100.00;99863.69;5051295;28;20513;-58
2024/03/22 02:28:42;;;;;;;0.40;0.40;;;;;;;8.27;100.00;99856.13;5052889;28;20771;-58
2024/03/22 02:31:08;;;;;;;0.30;0.30;;;;;;;8.31;100.00;99866.16;5051170;28;20059;-58
2024/03/22 02:33:38;;;;;;;0.30;0.30;;;;;;;8.20;100.00;99864.16;5048222;28;20052;-58
2024/03/22 02:36:05;;;;;;;0.30;0.30;;;;;;;8.16;100.00;99857.56;5050099;28;20037;-58
2024/03/22 02:38:32;;;;;;;0.40;0.40;;;;;;;8.08;100.00;99849.81;5052860;28;20072;-58
2024/03/22 02:41:00;;;;;;;0.30;0.30;;;;;;;8.08;100.00;99842.63;5059122;28;20041;-56
2024/03/22 02:43:27;;;;;;;0.30;0.30;;;;;;;7.95;100.00;99840.00;5060173;28;20080;-58
2024/03/22 02:45:53;;;;;;;0.20;0.20;;;;;;;7.89;100.00;99830.19;5053290;28;20742;-58
2024/03/22 02:48:20;;;;;;;0.30;0.30;;;;;;;8.00;100.00;99833.00;5054027;28;20033;-57
2024/03/22 02:50:46;;;;;;;0.30;0.30;;;;;;;7.88;100.00;99833.84;5052517;28;20047;-57
2024/03/22 02:53:13;;;;;;;0.40;0.40;;;;;;;7.91;100.00;99828.94;5053456;28;20071;-56
2024/03/22 02:55:40;;;;;;;0.30;0.30;;;;;;;7.92;100.00;99824.41;5058790;28;20090;-58
2024/03/22 02:58:08;;;;;;;0.30;0.30;;;;;;;7.94;100.00;99822.34;5053747;28;20044;-58
2024/03/22 03:00:36;;;;;;;0.30;0.30;;;;;;;7.93;100.00;99818.03;5049221;28;20044;-58
2024/03/22 03:03:04;;;;;;;0.30;0.30;;;;;;;7.96;100.00;99815.78;5054179;28;20048;-58
2024/03/22 03:05:30;;;;;;;0.30;0.30;;;;;;;8.12;100.00;99808.31;5037862;28;20083;-58
2024/03/22 03:07:57;;;;;;;0.20;0.20;;;;;;;8.12;100.00;99808.31;5059225;28;20044;-58
2024/03/22 03:10:23;;;;;;;0.30;0.30;;;;;;;8.25;100.00;99810.91;5054924;28;20172;-57
2024/03/22 03:12:50;;;;;;;0.40;0.40;;;;;;;8.50;100.00;99804.88;5049212;28;20041;-58
2024/03/22 03:15:17;;;;;;;0.25;0.25;;;;;;;8.51;100.00;99806.50;5052726;28;20049;-58
2024/03/22 03:17:44;;;;;;;0.30;0.30;;;;;;;8.49;100.00;99800.56;5053840;28;20040;-58
2024/03/22 03:20:13;;;;;;;0.38;0.38;;;;;;;8.49;100.00;99795.22;5044774;28;20102;-58
2024/03/22 03:22:40;;;;;;;0.30;0.30;;;;;;;8.55;100.00;99797.03;5054126;28;20128;-58
2024/03/22 03:25:07;;;;;;;0.20;0.20;;;;;;;8.57;100.00;99794.97;5051870;28;20144;-58
2024/03/22 03:27:34;;;;;;;0.28;0.28;;;;;;;8.53;100.00;99788.41;5052954;28;20043;-58
2024/03/22 03:30:00;;;;;;;0.30;0.30;;;;;;;8.61;100.00;99791.66;5052155;28;20160;-58
2024/03/22 03:32:29;;;;;;;0.20;0.20;;;;;;;8.65;100.00;99792.03;5047092;28;20048;-58
2024/03/22 03:34:55;;;;;;;0.25;0.25;;;;;;;8.72;100.00;99787.44;5049354;28;20493;-58
2024/03/22 03:37:23;;;;;;;0.30;0.30;;;;;;;8.71;100.00;99783.16;5056159;28;20059;-57
2024/03/22 03:39:49;;;;;;;0.30;0.30;;;;;;;8.76;100.00;99788.66;5057537;28;20112;-59
2024/03/22 03:42:16;;;;;;;0.20;0.20;;;;;;;8.66;100.00;99782.97;5052183;28;20536;-58
2024/03/22 03:44:42;;;;;;;0.30;0.30;;;;;;;8.70;100.00;99784.16;5052536;28;20154;-58
2024/03/22 03:47:09;;;;;;;0.20;0.20;;;;;;;8.66;100.00;99776.78;5060002;28;20332;-58
2024/03/22 03:49:36;;;;;;;0.20;0.20;;;;;;;8.71;100.00;99780.47;5050509;28;20153;-58
2024/03/22 03:52:04;;;;;;;0.30;0.30;;;;;;;8.74;100.00;99769.34;5054191;28;20044;-58
2024/03/22 03:54:30;;;;;;;0.30;0.30;;;;;;;8.78;100.00;99773.22;5045043;28;20479;-58
2024/03/22 03:56:57;;;;;;;0.30;0.30;;;;;;;8.73;100.00;99778.38;5061432;28;20082;-58
2024/03/22 03:59:23;;;;;;;0.20;0.20;;;;;;;8.83;100.00;99777.91;5051398;28;22226;-58
2024/03/22 04:01:50;;;;;;;0.20;0.20;;;;;;;8.81;100.00;99778.16;5054117;28;20049;-58
2024/03/22 04:04:16;;;;;;;0.20;0.20;;;;;;;8.70;100.00;99773.47;5052316;28;20048;-58
2024/03/22 04:06:46;;;;;;;0.20;0.20;;;;;;;8.77;100.00;99768.09;5048140;28;20052;-58
2024/03/22 04:09:12;;;;;;;0.30;0.30;;;;;;;8.76;100.00;99761.09;5049036;28;20348;-58
2024/03/22 04:11:39;;;;;;;0.30;0.30;;;;;;;8.77;100.00;99763.56;5050411;28;20098;-58
2024/03/22 04:14:05;;;;;;;0.20;0.20;;;;;;;8.77;100.00;99763.56;5052946;28;20147;-58
2024/03/22 04:16:32;;;;;;;0.30;0.30;;;;;;;8.87;100.00;99764.94;5052482;28;20040;-58
2024/03/22 04:18:58;;;;;;;0.30;0.30;;;;;;;8.77;100.00;99763.56;5059233;28;20491;-58
2024/03/22 04:21:25;;;;;;;0.30;0.30;;;;;;;8.82;100.00;99766.41;5059933;28;20312;-58
2024/03/22 04:23:52;;;;;;;0.20;0.20;;;;;;;8.88;100.00;99766.56;5056012;28;20498;-58
2024/03/22 04:26:20;;;;;;;0.20;0.20;;;;;;;8.77;100.00;99768.09;5049446;28;20080;-58
2024/03/22 04:28:46;;;;;;;0.20;0.20;;;;;;;8.75;100.00;99765.63;5052281;28;20043;-58
2024/03/22 04:31:14;;;;;;;0.30;0.30;;;;;;;8.88;100.00;99764.69;5048458;28;20041;-58
2024/03/22 04:33:40;;;;;;;0.20;0.20;;;;;;;8.84;100.00;99759.00;5053777;28;20131;-58
2024/03/22 04:36:09;;;;;;;0.30;0.30;;;;;;;8.95;100.00;99765.47;5045157;28;20073;-57
2024/03/22 04:38:36;;;;;;;0.30;0.30;;;;;;;8.89;100.00;99769.03;5053793;28;20048;-58
2024/03/22 04:41:04;;;;;;;0.20;0.20;;;;;;;8.89;100.00;99770.91;5050053;28;20144;-58
2024/03/22 04:43:31;;;;;;;0.20;0.20;;;;;;;8.94;100.00;99771.88;5052983;28;20098;-58
2024/03/22 04:45:58;;;;;;;0.30;0.30;;;;;;;8.96;100.00;99764.44;5046071;28;20474;-58
2024/03/22 04:48:24;;;;;;;0.20;0.20;;;;;;;9.00;100.00;99767.50;5045668;28;20445;-58
2024/03/22 04:50:51;;;;;;;0.25;0.25;;;;;;;9.05;100.00;99764.97;5053919;28;20656;-58
2024/03/22 04:53:17;;;;;;;0.20;0.20;;;;;;;9.06;100.00;99759.44;5052948;28;20044;-58
2024/03/22 04:55:45;;;;;;;0.30;0.30;;;;;;;9.04;100.00;99758.00;5060428;28;20513;-58
2024/03/22 04:58:14;;;;;;;0.30;0.30;;;;;;;9.00;100.00;99762.16;5045817;28;20049;-58
2024/03/22 05:00:41;;;;;;;0.20;0.20;;;;;;;8.94;100.00;99763.03;5055238;28;20558;-58
2024/03/22 05:03:07;;;;;;;0.20;0.20;;;;;;;8.93;100.00;99761.38;5047570;28;20041;-58
2024/03/22 05:05:34;;;;;;;0.30;0.30;;;;;;;8.96;100.00;99755.59;5049457;28;20745;-57
2024/03/22 05:08:00;;;;;;;0.30;0.30;;;;;;;8.99;100.00;99766.69;5053486;28;20064;-58
2024/03/22 05:10:28;;;;;;;0.20;0.20;;;;;;;9.00;100.00;99756.81;5052937;28;20060;-58
2024/03/22 05:12:54;;;;;;;0.30;0.30;;;;;;;9.03;100.00;99765.19;5053448;28;20484;-58
2024/03/22 05:15:25;;;;;;;0.30;0.30;;;;;;;9.03;100.00;99746.47;5054469;28;20075;-57
2024/03/22 05:17:51;;;;;;;0.20;0.20;;;;;;;9.03;100.00;99740.31;5056019;28;20044;-58
2024/03/22 05:20:18;;;;;;;0.20;0.20;;;;;;;9.06;100.00;99742.53;5050581;28;20076;-58
2024/03/22 05:22:44;;;;;;;0.20;0.20;;;;;;;9.16;100.00;99729.50;5053936;28;20045;-58
2024/03/22 05:25:12;;;;;;;0.30;0.30;;;;;;;9.17;100.00;99728.47;5052692;28;20225;-58
2024/03/22 05:27:38;;;;;;;0.30;0.30;;;;;;;9.10;100.00;99719.69;5048735;28;20477;-59
2024/03/22 05:30:07;;;;;;;0.30;0.30;;;;;;;9.18;100.00;99722.06;5053298;28;20044;-58
2024/03/22 05:32:34;;;;;;;0.30;0.30;;;;;;;9.09;100.00;99707.34;5046669;28;20040;-58
2024/03/22 05:35:02;;;;;;;0.22;0.22;;;;;;;9.19;100.00;99709.53;5048362;28;20045;-57
2024/03/22 05:37:28;;;;;;;0.30;0.30;;;;;;;9.19;100.00;99702.31;5052190;28;20072;-58
2024/03/22 05:39:55;;;;;;;0.22;0.22;;;;;;;9.05;100.00;99708.81;5046996;28;20039;-58
2024/03/22 05:42:22;;;;;;;0.30;0.30;;;;;;;9.06;100.00;99702.44;5055588;28;20639;-58
2024/03/22 05:44:49;;;;;;;0.30;0.30;;;;;;;9.18;100.00;99706.00;5053905;28;20045;-58
2024/03/22 05:47:15;;;;;;;0.20;0.20;;;;;;;9.26;100.00;99705.75;5051798;28;20059;-58
2024/03/22 05:49:45;;;;;;;0.30;0.30;;;;;;;9.20;100.00;99703.94;5046541;28;20136;-58
2024/03/22 05:52:12;;;;;;;0.30;0.30;;;;;;;9.22;100.00;99690.34;5063957;28;20508;-58
2024/03/22 05:54:39;;;;;;;0.30;0.30;;;;;;;9.25;100.00;99692.59;5050956;28;20048;-58
2024/03/22 05:57:05;;;;;;;0.32;0.32;;;;;;;9.23;100.00;99690.13;5058204;28;20114;-57
2024/03/22 05:59:32;;;;;;;0.25;0.25;;;;;;;9.29;100.00;99686.56;5055409;28;20131;-57
2024/03/22 06:01:58;;;;;;;0.28;0.28;;;;;;;9.42;100.00;99682.09;5059442;28;20052;-57
2024/03/22 06:04:25;;;;;;;0.20;0.20;;;;;;;9.39;100.00;99691.41;5056064;28;20059;-59
2024/03/22 06:06:52;;;;;;;0.40;0.40;;;;;;;9.48;100.00;99681.19;5051927;28;20098;-57
2024/03/22 06:09:23;;;;;;;0.30;0.30;;;;;;;9.42;100.00;99682.09;5049527;28;20044;-57
2024/03/22 06:11:50;;;;;;;0.20;0.20;;;;;;;9.42;100.00;99688.28;5057178;28;20051;-57
2024/03/22 06:14:17;;;;;;;0.30;0.30;;;;;;;9.40;100.00;99681.50;5053538;28;20044;-58
2024/03/22 06:16:43;;;;;;;0.20;0.20;;;;;;;9.38;100.00;99676.38;5053730;28;20098;-56
2024/03/22 06:19:10;;;;;;;0.30;0.30;;;;;;;9.47;100.00;99666.19;5054072;28;20052;-60
2024/03/22 06:21:36;;;;;;;0.30;0.30;;;;;;;9.42;100.00;99669.53;5052269;28;20052;-57
2024/03/22 06:24:05;;;;;;;0.28;0.28;;;;;;;9.53;100.00;99670.63;5061123;28;20054;-58
2024/03/22 06:26:31;;;;;;;0.30;0.30;;;;;;;9.36;100.00;99669.63;5055120;28;20135;-58
2024/03/22 06:28:58;;;;;;;0.30;0.30;;;;;;;9.53;100.00;99662.63;5055164;28;20075;-58
2024/03/22 06:31:24;;;;;;;0.30;0.30;;;;;;;9.57;100.00;99663.00;5046105;28;20130;-58
2024/03/22 06:33:51;;;;;;;0.30;0.30;;;;;;;9.49;100.00;99672.97;5054473;28;20640;-58
2024/03/22 06:36:18;;;;;;;0.30;0.30;;;;;;;9.56;100.00;99672.88;5045129;28;20060;-58
2024/03/22 06:38:45;;;;;;;0.25;0.25;;;;;;;9.68;100.00;99667.56;5067086;28;20453;-57
2024/03/22 06:41:12;;;;;;;0.20;0.20;;;;;;;9.59;100.00;99672.44;5045831;28;20056;-58
2024/03/22 06:43:40;;;;;;;0.30;0.30;;;;;;;9.70;100.00;99682.38;5054439;28;20049;-57
2024/03/22 06:46:06;;;;;;;0.20;0.20;;;;;;;9.83;100.00;99675.22;5056226;28;20044;-58
2024/03/22 06:48:33;;;;;;;0.30;0.30;;;;;;;9.88;100.00;99678.03;5078916;28;20043;-58
2024/03/22 06:50:59;;;;;;;0.30;0.30;;;;;;;9.97;100.00;99670.50;5052517;28;20064;-58
2024/03/22 06:53:27;;;;;;;0.20;0.20;;;;;;;9.91;100.00;99670.38;5048327;28;20083;-58
2024/03/22 06:55:53;;;;;;;0.30;0.30;;;;;;;9.97;100.00;99674.00;5054338;28;20494;-58
2024/03/22 06:58:21;;;;;;;0.30;0.30;;;;;;;9.85;100.00;99665.91;5050014;28;20060;-57
2024/03/22 07:00:47;;;;;;;0.30;0.30;;;;;;;9.83;100.00;99665.31;5053307;28;20068;-57
2024/03/22 07:03:14;;;;;;;0.20;0.20;;;;;;;9.88;100.00;99664.63;5057232;28;20056;-58
2024/03/22 07:05:40;;;;;;;0.30;0.30;;;;;;;9.93;100.00;99662.94;5055291;28;20832;-58
2024/03/22 07:08:07;;;;;;;0.28;0.28;;;;;;;9.84;100.00;99666.16;5049359;28;20423;-57
2024/03/22 07:10:33;;;;;;;0.30;0.30;;;;;;;10.07;100.00;99654.69;5056355;28;20485;-60
2024/03/22 07:13:01;;;;;;;0.20;0.20;;;;;;;9.82;100.00;99654.84;5058703;28;20506;-58
2024/03/22 07:15:29;;;;;;;0.20;0.20;;;;;;;9.91;100.00;99653.50;5050363;28;20600;-58
2024/03/22 07:17:57;;;;;;;0.20;0.20;;;;;;;9.88;100.00;99641.38;5056276;28;20040;-59
2024/03/22 07:20:23;;;;;;;0.30;0.30;;;;;;;10.05;100.00;99652.25;5053468;28;20131;-58
2024/03/22 07:22:50;;;;;;;0.20;0.20;;;;;;;10.12;100.00;99642.25;5056527;28;20037;-59
2024/03/22 07:25:16;;;;;;;0.20;0.20;;;;;;;10.00;100.00;99649.44;5059041;28;20050;-59
2024/03/22 07:27:43;;;;;;;0.28;0.28;;;;;;;10.24;100.00;99644.16;5049820;28;20800;-59
2024/03/22 07:30:10;;;;;;;0.30;0.30;;;;;;;10.22;100.00;99640.88;5053968;28;20043;-58
2024/03/22 07:32:38;;;;;;;0.22;0.22;;;;;;;10.09;100.00;99636.53;5047678;28;20260;-59
2024/03/22 07:35:05;;;;;;;0.20;0.20;;;;;;;10.19;100.00;99646.69;5056971;28;20037;-59
2024/03/22 07:37:32;;;;;;;0.25;0.25;;;;;;;10.15;100.00;99649.81;5055125;28;20622;-59
2024/03/22 07:39:58;;;;;;;0.20;0.20;;;;;;;10.27;100.00;99638.31;5055198;28;20123;-58
2024/03/22 07:42:26;;;;;;;0.20;0.20;;;;;;;10.55;100.00;99646.53;5054340;28;20045;-58
2024/03/22 07:44:52;;;;;;;0.30;0.30;;;;;;;10.29;100.00;99642.44;5050399;28;20049;-58
2024/03/22 07:47:20;;;;;;;0.20;0.20;;;;;;;10.44;100.00;99638.50;5052239;28;20045;-59
2024/03/22 07:49:48;;;;;;;0.20;0.20;;;;;;;10.68;100.00;99633.94;5052371;28;20064;-58
2024/03/22 07:52:16;;;;;;;0.20;0.20;;;;;;;10.74;100.00;99635.72;5054347;28;20083;-59
2024/03/22 07:54:42;;;;;;;0.30;0.30;;;;;;;10.78;100.00;99639.53;5051285;28;20671;-58
2024/03/22 07:57:10;;;;;;;0.20;0.20;;;;;;;10.80;100.00;99640.94;5049488;28;20044;-58
2024/03/22 07:59:36;;;;;;;0.20;0.20;;;;;;;10.80;100.00;99637.44;5052918;28;20040;-58
2024/03/22 08:02:04;;;;;;;0.28;0.28;;;;;;;11.15;100.00;99631.25;5049396;28;20488;-58
2024/03/22 08:04:30;;;;;;;0.28;0.28;;;;;;;10.85;100.00;99624.16;5049958;28;20041;-58
2024/03/22 08:06:58;;;;;;;0.20;0.20;;;;;;;10.95;100.00;99619.00;5052639;28;20044;-58
2024/03/22 08:09:24;;;;;;;0.22;0.22;;;;;;;10.86;100.00;99615.09;5048406;28;20068;-58
2024/03/22 08:11:51;;;;;;;0.25;0.25;;;;;;;11.25;100.00;99615.34;5047971;28;20075;-59
2024/03/22 08:14:18;;;;;;;0.20;0.20;;;;;;;12.12;100.00;99617.00;5047472;28;20574;-58
2024/03/22 08:16:45;;;;;;;0.20;0.20;;;;;;;11.89;100.00;99614.47;5059051;28;20041;-58
2024/03/22 08:19:11;;;;;;;0.30;0.30;;;;;;;11.88;100.00;99605.56;5050677;28;20051;-58
2024/03/22 08:21:38;;;;;;;0.20;0.20;;;;;;;12.22;100.00;99601.03;5060702;28;20036;-58
2024/03/22 08:24:05;;;;;;;0.20;0.20;;;;;;;12.05;100.00;99605.59;5052069;28;20127;-58
2024/03/22 08:26:32;;;;;;;0.20;0.20;;;;;;;14.28;92.11;99594.41;5048786;28;20049;-58
2024/03/22 08:28:59;;;;;;;0.17;0.17;;;;;;;13.42;88.42;99597.88;5051865;28;20152;-58
2024/03/22 08:31:28;;;;;;;0.20;0.20;;;;;;;13.45;91.34;99597.38;5050001;28;20198;-57
2024/03/22 08:33:55;;;;;;;0.20;0.20;;;;;;;13.25;93.61;99597.09;5050793;28;20577;-57
2024/03/22 08:36:23;;;;;;;0.10;0.10;;;;;;;13.29;93.62;99592.88;5055782;28;20045;-57
2024/03/22 08:38:49;;;;;;;0.10;0.10;;;;;;;13.64;90.22;99586.28;5047209;28;20040;-57
2024/03/22 08:41:17;;;;;;;0.13;0.13;;;;;;;13.51;91.44;99582.91;5053472;28;20154;-57
2024/03/22 08:43:45;;;;;;;0.10;0.10;;;;;;;13.67;91.75;99583.88;5049959;28;20466;-57
2024/03/22 08:46:12;;;;;;;0.10;0.10;;;;;;;14.18;84.87;99575.47;5053777;28;20426;-57
2024/03/22 08:48:38;;;;;;;0.20;0.20;;;;;;;13.45;90.98;99575.81;5047890;28;20044;-57
2024/03/22 08:51:05;;;;;;;0.20;0.20;;;;;;;13.36;92.25;99569.28;5048103;28;20094;-57
2024/03/22 08:53:31;;;;;;;0.17;0.17;;;;;;;13.54;90.51;99563.53;5058208;28;20498;-58
2024/03/22 08:55:58;;;;;;;0.20;0.20;;;;;;;15.49;83.52;99565.63;5049561;28;20115;-57
2024/03/22 08:58:26;;;;;;;0.10;0.10;;;;;;;15.79;78.90;99557.88;5049880;28;20128;-58
2024/03/22 09:00:53;;;;;;;0.10;0.10;;;;;;;15.99;75.05;99563.28;5044736;28;20036;-58
2024/03/22 09:03:21;;;;;;;0.10;0.10;;;;;;;14.30;83.96;99559.88;5049037;28;20053;-58
2024/03/22 09:05:49;;;;;;;0.10;0.10;;;;;;;14.64;84.72;99556.91;5049232;28;20510;-57
2024/03/22 09:08:16;;;;;;;0.10;0.10;;;;;;;14.37;85.44;99555.09;5052939;28;20060;-57
2024/03/22 09:10:43;;;;;;;0.10;0.10;;;;;;;13.92;85.58;99556.34;5048520;28;20040;-58
2024/03/22 09:13:12;;;;;;;0.03;0.03;;;;;;;14.65;85.59;99553.13;5052933;28;20139;-57
2024/03/22 09:15:40;;;;;;;0.10;0.10;;;;;;;13.75;85.29;99558.34;5051792;28;20553;-57
2024/03/22 09:18:08;;;;;;;0.10;0.10;;;;;;;14.50;83.98;99553.00;5058401;28;20036;-58
2024/03/22 09:20:35;;;;;;;0.10;0.10;;;;;;;14.21;84.98;99553.38;5056398;28;20186;-58
2024/03/22 09:23:02;;;;;;;0.10;0.10;;;;;;;13.59;88.23;99552.81;5048493;28;20048;-58
2024/03/22 09:25:29;;;;;;;0.10;0.10;;;;;;;14.18;86.39;99556.59;5054829;28;20041;-58
2024/03/22 09:27:55;;;;;;;0.20;0.20;;;;;;;14.22;85.40;99541.50;5056111;28;20382;-57
2024/03/22 09:30:22;;;;;;;0.20;0.20;;;;;;;14.22;87.99;99536.91;5053475;28;20070;-55
2024/03/22 09:32:51;;;;;;;0.10;0.10;;;;;;;15.93;78.64;99537.34;5056064;28;20044;-58
2024/03/22 09:35:18;;;;;;;0.10;0.10;;;;;;;16.15;77.81;99534.38;5050233;28;20037;-58
2024/03/22 09:37:44;;;;;;;0.10;0.10;;;;;;;14.41;83.51;99529.25;5054149;28;20051;-57
2024/03/22 09:40:12;;;;;;;0.10;0.10;;;;;;;14.91;85.09;99515.50;5050042;28;20076;-57
2024/03/22 09:42:39;;;;;;;0.10;0.10;;;;;;;15.52;81.53;99507.56;5049936;28;20566;-57
2024/03/22 09:45:10;;;;;;;0.00;0.00;;;;;;;16.45;78.15;99517.28;5053443;28;20041;-57
2024/03/22 09:47:36;;;;;;;0.10;0.10;;;;;;;16.45;77.62;99506.47;5049640;28;20118;-57
2024/03/22 09:50:08;;;;;;;0.10;0.10;;;;;;;16.33;78.13;99511.38;5051598;28;20040;-58
2024/03/22 09:52:35;;;;;;;0.00;0.00;;;;;;;15.72;77.33;99504.09;5054791;28;20036;-58
2024/03/22 09:55:04;;;;;;;0.10;0.10;;;;;;;15.47;81.11;99507.53;5054849;28;20057;-57
2024/03/22 09:57:30;;;;;;;0.10;0.10;;;;;;;16.04;78.46;99508.41;5059039;28;20049;-58
2024/03/22 09:59:57;;;;;;;0.10;0.10;;;;;;;16.28;77.71;99505.97;5050003;28;20049;-58
2024/03/22 10:02:23;;;;;;;0.10;0.10;;;;;;;16.65;75.08;99502.91;5055710;28;20076;-57
2024/03/22 10:04:51;;;;;;;0.00;0.00;;;;;;;17.12;73.30;99503.53;5059126;28;20391;-58
2024/03/22 10:07:19;;;;;;;0.08;0.08;;;;;;;17.01;72.41;99505.50;5056924;28;20056;-58
2024/03/22 10:09:46;;;;;;;0.10;0.10;;;;;;;16.99;71.47;99505.75;5057304;28;20049;-58
2024/03/22 10:12:12;;;;;;;0.00;0.00;;;;;;;16.69;70.58;99512.06;5058443;28;20051;-58
2024/03/22 10:14:41;;;;;;;0.10;0.10;;;;;;;16.80;71.64;99502.88;5054574;28;20048;-58
2024/03/22 10:17:07;;;;;;;0.10;0.10;;;;;;;16.75;70.64;99491.25;5060446;28;20048;-57
2024/03/22 10:19:35;;;;;;;0.08;0.08;;;;;;;16.97;69.15;99497.13;5050782;28;20052;-58
2024/03/22 10:22:01;;;;;;;0.10;0.10;;;;;;;16.98;70.78;99498.72;5055180;28;20122;-58
2024/03/22 10:24:29;;;;;;;0.00;0.00;;;;;;;16.87;70.55;99497.16;5048594;28;20114;-58
2024/03/22 10:26:55;;;;;;;0.10;0.10;;;;;;;16.45;75.63;99490.25;5057899;28;20131;-58
2024/03/22 10:29:23;;;;;;;0.10;0.10;;;;;;;16.48;75.17;99481.56;5056695;28;20057;-58
2024/03/22 10:31:50;;;;;;;0.10;0.10;;;;;;;16.58;75.91;99475.31;5057330;28;20044;-58
2024/03/22 10:34:17;;;;;;;0.05;0.05;;;;;;;16.60;73.70;99471.25;5055049;28;20689;-58
2024/03/22 10:36:46;;;;;;;0.10;0.10;;;;;;;17.17;72.64;99469.13;5056068;28;20053;-58
2024/03/22 10:39:14;;;;;;;0.10;0.10;;;;;;;16.44;73.93;99463.47;5056165;28;20053;-57
2024/03/22 10:41:41;;;;;;;0.03;0.03;;;;;;;16.55;73.71;99471.28;5049451;28;20056;-58
2024/03/22 10:44:12;;;;;;;0.10;0.10;;;;;;;16.92;75.03;99466.53;5054238;28;20435;-58
2024/03/22 10:46:43;;;;;;;0.00;0.00;;;;;;;17.57;71.94;99466.41;5051976;28;20044;-57
2024/03/22 10:49:10;;;;;;;0.00;0.00;;;;;;;17.34;71.39;99468.72;5059757;28;20412;-58
2024/03/22 10:51:36;;;;;;;0.00;0.00;;;;;;;17.34;74.17;99457.88;5053493;28;20122;-58
2024/03/22 10:54:04;;;;;;;0.03;0.03;;;;;;;17.45;69.82;99461.38;5054954;28;20361;-57
2024/03/22 10:56:30;;;;;;;0.00;0.00;;;;;;;17.17;68.73;99457.47;5052854;28;20064;-58
2024/03/22 10:58:58;;;;;;;0.00;0.00;;;;;;;17.42;68.76;99453.78;5052019;28;20587;-58
2024/03/22 11:01:25;;;;;;;0.00;0.00;;;;;;;17.48;68.08;99452.66;5052047;28;20056;-57
2024/03/22 11:03:52;;;;;;;0.00;0.00;;;;;;;17.50;68.90;99444.22;5050708;28;20487;-58
2024/03/22 11:06:19;;;;;;;0.00;0.00;;;;;;;17.71;67.78;99440.28;5053363;28;20132;-57
2024/03/22 11:08:50;;;;;;;0.00;0.00;;;;;;;17.87;66.99;99447.22;5056430;28;20436;-58
2024/03/22 11:11:18;;;;;;;0.00;0.00;;;;;;;17.55;67.03;99439.59;5053789;28;20537;-58
2024/03/22 11:13:45;;;;;;;0.08;0.08;;;;;;;17.55;67.52;99439.59;5054832;28;20036;-58
2024/03/22 11:16:12;;;;;;;0.05;0.05;;;;;;;17.87;64.68;99433.66;5058765;28;20059;-58
2024/03/22 11:18:40;;;;;;;0.10;0.10;;;;;;;17.55;68.19;99430.66;5057198;28;20045;-58
2024/03/22 11:21:08;;;;;;;0.00;0.00;;;;;;;18.09;64.64;99435.06;5046216;28;20691;-57
2024/03/22 11:23:36;;;;;;;0.00;0.00;;;;;;;17.97;63.69;99429.22;5054119;28;20145;-57
2024/03/22 11:26:02;;;;;;;0.05;0.05;;;;;;;18.32;63.00;99428.88;5051053;28;20059;-58
2024/03/22 11:28:30;;;;;;;0.00;0.00;;;;;;;18.87;61.19;99419.50;5055817;28;20256;-57
2024/03/22 11:30:56;;;;;;;0.00;0.00;;;;;;;18.61;59.70;99416.31;5059435;28;20139;-58